createdAt,value
2019-04-20T00:00:29.411Z,46.20
2019-04-20T00:02:57.128Z,46.20
2019-04-20T00:05:23.243Z,46.30
2019-04-20T00:07:50.167Z,46.40
2019-04-20T00:10:19.539Z,46.50
2019-04-20T00:12:59.764Z,46.70
2019-04-20T00:15:13.108Z,46.80
2019-04-20T00:17:45.920Z,46.80
2019-04-20T00:20:13.441Z,46.90
2019-04-20T00:22:57.005Z,47.00
2019-04-20T00:25:54.915Z,47.10
2019-04-20T00:28:33.875Z,47.80
2019-04-20T00:30:59.018Z,47.40
2019-04-20T00:33:24.319Z,47.60
2019-04-20T00:35:36.344Z,47.80
2019-04-20T00:38:03.394Z,47.90
2019-04-20T00:40:30.643Z,48.10
2019-04-20T00:42:59.818Z,48.30
2019-04-20T00:45:30.176Z,48.50
2019-04-20T00:47:59.278Z,48.70
2019-04-20T00:50:35.740Z,48.80
2019-04-20T00:53:04.659Z,49.00
2019-04-20T00:55:19.105Z,49.10
2019-04-20T00:57:51.881Z,49.20
2019-04-20T01:00:31.334Z,49.40
2019-04-20T01:02:50.776Z,49.40
2019-04-20T01:05:48.569Z,49.50
2019-04-20T01:08:06.937Z,49.60
2019-04-20T01:10:38.238Z,49.70
2019-04-20T01:13:06.922Z,49.70
2019-04-20T01:15:38.810Z,49.80
2019-04-20T01:17:57.016Z,49.80
2019-04-20T01:20:26.388Z,49.80
2019-04-20T01:22:59.664Z,49.90
2019-04-20T01:25:27.251Z,50.00
2019-04-20T01:28:18.390Z,50.00
2019-04-20T01:30:24.915Z,49.50
2019-04-20T01:33:05.480Z,50.20
2019-04-20T01:35:31.934Z,50.20
2019-04-20T01:38:01.385Z,50.20
2019-04-20T01:40:10.912Z,50.30
2019-04-20T01:42:38.303Z,50.40
2019-04-20T01:45:13.340Z,50.60
2019-04-20T01:47:41.588Z,50.90
2019-04-20T01:50:10.286Z,51.00
2019-04-20T01:52:47.003Z,51.00
2019-04-20T01:55:34.660Z,51.10
2019-04-20T01:58:06.067Z,51.10
2019-04-20T02:00:34.431Z,51.30
2019-04-20T02:03:15.071Z,51.30
2019-04-20T02:05:42.231Z,51.30
2019-04-20T02:08:14.493Z,51.50
2019-04-20T02:10:46.812Z,51.50
2019-04-20T02:13:06.662Z,51.70
2019-04-20T02:15:40.330Z,51.70
2019-04-20T02:18:15.086Z,51.80
2019-04-20T02:20:48.687Z,52.00
2019-04-20T02:23:10.536Z,52.20
2019-04-20T02:25:25.472Z,52.20
2019-04-20T02:27:55.550Z,52.30
2019-04-20T02:30:55.807Z,52.40
2019-04-20T02:33:34.451Z,52.40
2019-04-20T02:36:15.407Z,52.80
2019-04-20T02:39:00.197Z,52.70
2019-04-20T02:41:20.144Z,52.80
2019-04-20T02:43:58.124Z,53.10
2019-04-20T02:46:08.993Z,53.20
2019-04-20T02:48:39.447Z,53.20
2019-04-20T02:51:06.263Z,53.40
2019-04-20T02:53:46.978Z,53.40
2019-04-20T02:56:03.882Z,53.50
2019-04-20T02:58:34.857Z,53.50
2019-04-20T03:01:03.902Z,53.60
2019-04-20T03:03:07.807Z,53.70
2019-04-20T03:05:33.161Z,53.80
2019-04-20T03:08:08.716Z,53.80
2019-04-20T03:10:48.742Z,53.80
2019-04-20T03:13:11.279Z,53.90
2019-04-20T03:15:37.937Z,54.10
2019-04-20T03:18:03.438Z,54.20
2019-04-20T03:20:36.362Z,54.50
2019-04-20T03:23:18.773Z,54.70
2019-04-20T03:25:49.538Z,54.70
2019-04-20T03:28:18.313Z,54.90
2019-04-20T03:33:31.349Z,55.20
2019-04-20T03:35:51.099Z,55.30
2019-04-20T03:38:14.497Z,55.30
2019-04-20T03:40:37.470Z,55.20
2019-04-20T03:42:50.622Z,55.30
2019-04-20T03:45:20.134Z,55.50
2019-04-20T03:47:56.722Z,55.50
2019-04-20T03:50:39.363Z,55.60
2019-04-20T03:53:08.385Z,55.70
2019-04-20T03:55:39.635Z,55.90
2019-04-20T03:58:17.113Z,55.90
2019-04-20T04:00:42.985Z,55.90
2019-04-20T04:03:26.125Z,56.00
2019-04-20T04:05:48.122Z,55.90
2019-04-20T04:08:10.554Z,56.10
2019-04-20T04:10:40.882Z,56.00
2019-04-20T04:13:14.748Z,55.90
2019-04-20T04:15:48.777Z,56.00
2019-04-20T04:18:19.756Z,56.10
2019-04-20T04:20:49.216Z,56.10
2019-04-20T04:23:27.042Z,56.00
2019-04-20T04:26:00.815Z,55.90
2019-04-20T04:28:28.514Z,55.80
2019-04-20T04:30:59.792Z,55.80
2019-04-20T04:33:50.392Z,55.80
2019-04-20T04:35:51.346Z,55.80
2019-04-20T04:38:27.448Z,55.80
2019-04-20T04:41:02.783Z,55.80
2019-04-20T04:43:19.750Z,55.90
2019-04-20T04:45:31.709Z,56.10
2019-04-20T04:47:57.843Z,56.30
2019-04-20T04:50:26.966Z,56.40
2019-04-20T04:52:59.681Z,56.50
2019-04-20T04:55:34.440Z,56.40
2019-04-20T04:57:49.473Z,56.40
2019-04-20T05:00:22.694Z,56.20
2019-04-20T05:02:51.709Z,56.20
2019-04-20T05:05:35.755Z,56.00
2019-04-20T05:07:56.527Z,55.90
2019-04-20T05:10:32.988Z,55.80
2019-04-20T05:13:00.737Z,55.80
2019-04-20T05:15:40.454Z,55.80
2019-04-20T05:18:16.205Z,55.80
2019-04-20T05:20:47.611Z,55.70
2019-04-20T05:23:11.507Z,55.40
2019-04-20T05:25:43.064Z,55.40
2019-04-20T05:28:24.185Z,55.40
2019-04-20T05:30:48.596Z,55.30
2019-04-20T05:33:26.477Z,55.30
2019-04-20T05:36:01.532Z,55.50
2019-04-20T05:38:39.760Z,55.70
2019-04-20T05:40:59.804Z,55.70
2019-04-20T05:43:29.005Z,55.70
2019-04-20T05:45:50.361Z,55.80
2019-04-20T05:48:20.574Z,55.90
2019-04-20T05:50:54.936Z,55.90
2019-04-20T05:53:28.827Z,55.80
2019-04-20T05:55:50.289Z,56.00
2019-04-20T05:58:26.303Z,55.80
2019-04-20T06:01:00.588Z,55.60
2019-04-20T06:06:05.749Z,55.30
2019-04-20T06:08:40.026Z,55.20
2019-04-20T06:10:55.954Z,55.20
2019-04-20T06:13:22.485Z,55.20
2019-04-20T06:15:59.177Z,54.80
2019-04-20T06:18:40.097Z,54.60
2019-04-20T06:21:19.950Z,54.60
2019-04-20T06:24:06.657Z,54.60
2019-04-20T06:28:51.843Z,54.10
2019-04-20T06:31:42.545Z,53.50
2019-04-20T06:39:40.743Z,52.60
2019-04-20T06:44:14.754Z,51.40
2019-04-20T06:46:47.254Z,50.80
2019-04-20T06:49:16.840Z,50.30
2019-04-20T06:51:42.491Z,50.00
2019-04-20T06:53:59.702Z,50.20
2019-04-20T06:56:42.567Z,49.50
2019-04-20T06:59:11.949Z,49.50
2019-04-20T07:01:45.051Z,49.50
2019-04-20T07:04:21.170Z,49.10
2019-04-20T07:09:06.610Z,49.10
2019-04-20T07:11:28.262Z,48.50
2019-04-20T07:13:44.487Z,48.20
2019-04-20T07:16:34.862Z,47.90
2019-04-20T07:19:01.069Z,47.80
2019-04-20T07:22:06.984Z,47.80
2019-04-20T07:24:24.846Z,47.50
2019-04-20T07:26:54.193Z,47.40
2019-04-20T07:29:20.922Z,47.60
2019-04-20T07:31:46.199Z,47.70
2019-04-20T07:34:15.700Z,47.80
2019-04-20T07:36:55.226Z,47.60
2019-04-20T07:39:19.393Z,47.40
2019-04-20T07:41:55.724Z,47.00
2019-04-20T07:44:10.179Z,46.40
2019-04-20T07:46:47.118Z,45.80
2019-04-20T07:49:08.836Z,45.30
2019-04-20T07:51:19.613Z,45.20
2019-04-20T07:53:59.596Z,44.80
2019-04-20T07:56:34.609Z,44.80
2019-04-20T07:58:44.136Z,44.30
2019-04-20T08:01:46.019Z,44.00
2019-04-20T08:04:22.605Z,43.70
2019-04-20T08:06:45.945Z,43.30
2019-04-20T08:09:20.815Z,43.20
2019-04-20T08:12:07.469Z,42.60
2019-04-20T08:14:35.680Z,42.40
2019-04-20T08:17:09.587Z,42.60
2019-04-20T08:19:23.149Z,41.90
2019-04-20T08:22:09.563Z,41.70
2019-04-20T08:24:17.110Z,41.30
2019-04-20T08:26:32.058Z,40.90
2019-04-20T08:29:14.374Z,40.80
2019-04-20T08:31:46.033Z,40.20
2019-04-20T08:34:38.330Z,39.50
2019-04-20T08:36:58.464Z,38.80
2019-04-20T08:39:37.408Z,37.90
2019-04-20T08:41:58.992Z,37.30
2019-04-20T08:44:48.507Z,36.50
2019-04-20T08:47:02.101Z,36.40
2019-04-20T08:49:28.217Z,35.60
2019-04-20T08:51:59.975Z,35.10
2019-04-20T08:54:14.065Z,34.50
2019-04-20T08:56:33.553Z,33.90
2019-04-20T08:58:52.883Z,33.80
2019-04-20T09:01:21.533Z,33.80
2019-04-20T09:03:58.917Z,32.90
2019-04-20T09:06:32.247Z,32.30
2019-04-20T09:08:53.660Z,32.20
2019-04-20T09:11:31.135Z,31.90
2019-04-20T09:13:47.802Z,32.20
2019-04-20T09:16:09.003Z,31.40
2019-04-20T09:18:47.741Z,31.60
2019-04-20T09:21:19.929Z,30.60
2019-04-20T09:23:57.680Z,30.00
2019-04-20T09:26:29.412Z,29.90
2019-04-20T09:28:54.389Z,30.00
2019-04-20T09:31:25.868Z,29.90
2019-04-20T09:34:16.118Z,29.90
2019-04-20T09:36:44.566Z,30.40
2019-04-20T09:39:12.814Z,29.80
2019-04-20T09:41:56.290Z,29.20
2019-04-20T09:44:00.635Z,29.10
2019-04-20T09:46:32.877Z,28.80
2019-04-20T09:48:59.850Z,28.30
2019-04-20T09:51:40.155Z,27.80
2019-04-20T09:54:04.310Z,27.60
2019-04-20T09:56:32.428Z,27.70
2019-04-20T09:59:09.583Z,27.40
2019-04-20T10:01:27.252Z,26.90
2019-04-20T10:03:43.350Z,26.80
2019-04-20T10:06:09.784Z,26.60
2019-04-20T10:08:43.287Z,26.80
2019-04-20T10:11:05.556Z,26.70
2019-04-20T10:13:32.266Z,26.90
2019-04-20T10:15:59.718Z,27.30
2019-04-20T10:18:26.064Z,27.50
2019-04-20T10:20:53.829Z,27.50
2019-04-20T10:23:20.733Z,27.70
2019-04-20T10:25:47.044Z,27.70
2019-04-20T10:28:13.867Z,27.60
2019-04-20T10:30:40.883Z,27.60
2019-04-20T10:33:07.749Z,27.40
2019-04-20T10:35:34.112Z,26.90
2019-04-20T10:38:03.234Z,26.70
2019-04-20T10:40:41.531Z,26.20
2019-04-20T10:43:00.936Z,26.20
2019-04-20T10:45:26.772Z,25.80
2019-04-20T10:47:53.249Z,25.70
2019-04-20T10:50:20.918Z,25.50
2019-04-20T10:52:47.751Z,25.30
2019-04-20T10:55:14.713Z,25.10
2019-04-20T10:57:41.764Z,25.00
2019-04-20T11:00:09.990Z,24.80
2019-04-20T11:02:37.371Z,24.10
2019-04-20T11:05:06.414Z,23.20
2019-04-20T11:07:32.736Z,23.10
2019-04-20T11:10:07.868Z,22.60
2019-04-20T11:12:28.355Z,22.10
2019-04-20T11:14:54.598Z,21.90
2019-04-20T11:17:20.828Z,21.90
2019-04-20T11:19:47.547Z,21.90
2019-04-20T11:22:14.545Z,21.40
2019-04-20T11:24:40.823Z,21.20
2019-04-20T11:27:07.873Z,20.80
2019-04-20T11:29:34.273Z,21.10
2019-04-20T11:32:01.154Z,20.40
2019-04-20T11:34:32.962Z,20.30
2019-04-20T11:36:57.150Z,20.30
2019-04-20T11:39:24.947Z,20.20
2019-04-20T11:41:51.753Z,19.90
2019-04-20T11:44:18.120Z,20.70
2019-04-20T11:46:44.904Z,19.70
2019-04-20T11:49:11.318Z,19.60
2019-04-20T11:51:37.547Z,20.00
2019-04-20T11:54:04.268Z,19.90
2019-04-20T11:56:35.240Z,19.80
2019-04-20T11:58:58.992Z,19.50
2019-04-20T12:01:35.177Z,19.20
2019-04-20T12:04:02.896Z,19.30
2019-04-20T12:06:26.384Z,19.20
2019-04-20T12:08:52.653Z,19.00
2019-04-20T12:11:31.296Z,18.90
2019-04-20T12:13:46.959Z,18.70
2019-04-20T12:16:13.928Z,19.00
2019-04-20T12:18:40.307Z,18.80
2019-04-20T12:21:06.539Z,18.80
2019-04-20T12:23:33.998Z,18.70
2019-04-20T12:26:00.303Z,18.80
2019-04-20T12:28:27.506Z,18.60
2019-04-20T12:30:56.005Z,18.60
2019-04-20T12:33:22.196Z,18.50
2019-04-20T12:35:49.802Z,18.10
2019-04-20T12:38:17.079Z,18.10
2019-04-20T12:40:44.056Z,17.60
2019-04-20T12:43:11.114Z,17.50
2019-04-20T12:45:37.777Z,17.50
2019-04-20T12:48:05.910Z,17.80
2019-04-20T12:50:32.409Z,17.70
2019-04-20T12:52:58.836Z,17.90
2019-04-20T12:55:26.308Z,17.70
2019-04-20T12:57:52.644Z,17.40
2019-04-20T13:00:19.775Z,17.10
2019-04-20T13:02:47.375Z,17.10
2019-04-20T13:05:15.361Z,16.90
2019-04-20T13:07:46.348Z,16.90
2019-04-20T13:10:11.585Z,17.10
2019-04-20T13:12:46.760Z,17.60
2019-04-20T13:15:24.581Z,17.40
2019-04-20T13:17:52.501Z,17.70
2019-04-20T13:20:18.983Z,17.80
2019-04-20T13:22:46.532Z,17.70
2019-04-20T13:25:12.946Z,17.40
2019-04-20T13:27:39.220Z,17.40
2019-04-20T13:30:07.074Z,17.40
2019-04-20T13:32:34.012Z,17.80
2019-04-20T13:35:00.430Z,16.90
2019-04-20T13:37:26.678Z,16.60
2019-04-20T13:39:53.174Z,16.00
2019-04-20T13:42:24.758Z,15.80
2019-04-20T13:44:48.781Z,15.90
2019-04-20T13:47:15.004Z,15.80
2019-04-20T13:49:41.245Z,15.00
2019-04-20T13:52:08.662Z,15.20
2019-04-20T13:54:35.832Z,15.20
2019-04-20T13:57:04.764Z,15.20
2019-04-20T13:59:35.069Z,15.70
2019-04-20T14:02:06.721Z,15.70
2019-04-20T14:04:35.168Z,15.80
2019-04-20T14:07:01.844Z,15.60
2019-04-20T14:09:29.607Z,15.10
2019-04-20T14:12:00.850Z,15.10
2019-04-20T14:14:25.392Z,15.10
2019-04-20T14:16:52.842Z,15.10
2019-04-20T14:19:19.420Z,15.30
2019-04-20T14:21:46.136Z,15.00
2019-04-20T14:24:13.103Z,14.80
2019-04-20T14:26:41.262Z,14.90
2019-04-20T14:29:07.366Z,15.00
2019-04-20T14:31:34.014Z,15.00
2019-04-20T14:34:02.600Z,15.10
2019-04-20T14:36:28.967Z,15.10
2019-04-20T14:38:56.074Z,14.90
2019-04-20T14:41:22.438Z,14.70
2019-04-20T14:43:48.942Z,14.60
2019-04-20T14:46:16.741Z,14.60
2019-04-20T14:48:43.200Z,14.70
2019-04-20T14:51:09.780Z,14.80
2019-04-20T14:53:36.179Z,14.90
2019-04-20T14:56:03.339Z,14.70
2019-04-20T14:58:49.864Z,14.60
2019-04-20T15:01:30.374Z,14.70
2019-04-20T15:04:04.290Z,14.80
2019-04-20T15:06:25.524Z,14.90
2019-04-20T15:08:52.540Z,14.90
2019-04-20T15:11:18.897Z,15.10
2019-04-20T15:13:45.060Z,15.30
2019-04-20T15:16:12.731Z,15.10
2019-04-20T15:18:45.318Z,15.10
2019-04-20T15:21:15.404Z,15.30
2019-04-20T15:23:41.775Z,15.30
2019-04-20T15:26:08.661Z,15.40
2019-04-20T15:28:35.024Z,15.80
2019-04-20T15:31:02.552Z,16.10
2019-04-20T15:33:28.721Z,16.10
2019-04-20T15:35:55.824Z,16.00
2019-04-20T15:38:23.022Z,16.30
2019-04-20T15:40:49.544Z,16.20
2019-04-20T15:43:19.438Z,16.50
2019-04-20T15:45:43.720Z,16.00
2019-04-20T15:48:10.143Z,16.10
2019-04-20T15:50:38.074Z,16.30
2019-04-20T15:53:05.838Z,16.50
2019-04-20T15:55:37.951Z,16.80
2019-04-20T15:58:04.548Z,17.10
2019-04-20T16:00:29.707Z,17.10
2019-04-20T16:02:59.061Z,17.20
2019-04-20T16:05:37.565Z,17.40
2019-04-20T16:08:18.399Z,17.60
2019-04-20T16:10:45.466Z,17.70
2019-04-20T16:13:20.206Z,18.00
2019-04-20T16:15:39.992Z,18.20
2019-04-20T16:18:07.331Z,18.60
2019-04-20T16:20:46.251Z,18.90
2019-04-20T16:23:04.747Z,19.30
2019-04-20T16:25:33.169Z,19.40
2019-04-20T16:27:59.457Z,19.70
2019-04-20T16:30:25.627Z,20.00
2019-04-20T16:32:52.523Z,20.20
2019-04-20T16:35:18.801Z,20.40
2019-04-20T16:37:46.411Z,20.60
2019-04-20T16:40:13.777Z,20.90
2019-04-20T16:42:42.113Z,20.90
2019-04-20T16:45:09.361Z,21.20
2019-04-20T16:47:36.605Z,21.60
2019-04-20T16:50:04.822Z,21.70
2019-04-20T16:52:31.019Z,21.80
2019-04-20T16:54:57.693Z,21.90
2019-04-20T16:57:25.361Z,22.20
2019-04-20T16:59:55.746Z,22.30
2019-04-20T17:02:21.242Z,22.40
2019-04-20T17:04:50.326Z,22.70
2019-04-20T17:07:18.540Z,22.70
2019-04-20T17:09:49.732Z,22.80
2019-04-20T17:12:17.588Z,22.90
2019-04-20T17:14:45.635Z,23.00
2019-04-20T17:17:13.438Z,23.10
2019-04-20T17:19:40.024Z,23.40
2019-04-20T17:22:07.547Z,23.60
2019-04-20T17:24:33.825Z,23.60
2019-04-20T17:27:19.205Z,23.50
2019-04-20T17:30:05.540Z,23.70
2019-04-20T17:32:34.222Z,23.90
2019-04-20T17:35:17.123Z,24.10
2019-04-20T17:37:32.854Z,24.10
2019-04-20T17:40:19.255Z,24.50
2019-04-20T17:42:40.089Z,24.70
2019-04-20T17:45:02.656Z,24.80
2019-04-20T17:47:37.262Z,24.80
2019-04-20T17:50:10.882Z,25.00
2019-04-20T17:52:42.828Z,25.00
2019-04-20T17:55:17.021Z,25.10
2019-04-20T17:57:33.188Z,25.30
2019-04-20T18:00:11.462Z,25.30
2019-04-20T18:02:53.534Z,25.30
2019-04-20T18:05:26.988Z,25.40
2019-04-20T18:07:58.712Z,25.50
2019-04-20T18:10:22.433Z,25.60
2019-04-20T18:12:42.243Z,25.70
2019-04-20T18:15:22.951Z,25.90
2019-04-20T18:18:00.242Z,25.90
2019-04-20T18:20:16.795Z,25.90
2019-04-20T18:22:47.565Z,26.00
2019-04-20T18:25:29.902Z,26.20
2019-04-20T18:27:57.119Z,26.20
2019-04-20T18:30:26.263Z,26.30
2019-04-20T18:32:41.164Z,26.40
2019-04-20T18:35:12.399Z,26.40
2019-04-20T18:37:39.694Z,26.50
2019-04-20T18:40:11.139Z,26.70
2019-04-20T18:42:40.681Z,26.70
2019-04-20T18:45:25.376Z,26.60
2019-04-20T18:47:56.309Z,26.80
2019-04-20T18:50:13.126Z,27.00
2019-04-20T18:52:33.622Z,27.30
2019-04-20T18:55:01.524Z,27.20
2019-04-20T18:57:29.659Z,27.20
2019-04-20T18:59:58.450Z,27.50
2019-04-20T19:02:29.400Z,27.60
2019-04-20T19:04:53.611Z,27.70
2019-04-20T19:07:21.792Z,27.80
2019-04-20T19:09:48.506Z,28.00
2019-04-20T19:12:16.594Z,28.20
2019-04-20T19:14:51.689Z,28.40
2019-04-20T19:17:45.127Z,28.40
2019-04-20T19:20:07.038Z,28.60
2019-04-20T19:22:35.606Z,28.70
2019-04-20T19:25:05.570Z,29.00
2019-04-20T19:27:40.103Z,29.00
2019-04-20T19:30:16.890Z,29.10
2019-04-20T19:32:39.507Z,29.30
2019-04-20T19:35:04.616Z,29.30
2019-04-20T19:37:32.381Z,29.50
2019-04-20T19:40:04.586Z,29.60
2019-04-20T19:42:34.966Z,29.60
2019-04-20T19:45:07.938Z,29.60
2019-04-20T19:47:37.094Z,29.80
2019-04-20T19:50:07.134Z,30.00
2019-04-20T19:52:36.676Z,30.20
2019-04-20T19:55:04.489Z,30.70
2019-04-20T19:57:27.337Z,30.90
2019-04-20T19:59:42.355Z,31.30
2019-04-20T20:02:05.522Z,31.40
2019-04-20T20:04:40.438Z,31.60
2019-04-20T20:07:05.014Z,31.90
2019-04-20T20:09:32.421Z,32.40
2019-04-20T20:12:04.435Z,32.70
2019-04-20T20:14:32.959Z,33.10
2019-04-20T20:17:08.928Z,33.50
2019-04-20T20:19:38.116Z,33.70
2019-04-20T20:22:04.742Z,34.10
2019-04-20T20:24:18.000Z,34.50
2019-04-20T20:26:52.665Z,34.80
2019-04-20T20:29:23.227Z,35.20
2019-04-20T20:32:03.396Z,35.20
2019-04-20T20:34:18.075Z,35.30
2019-04-20T20:36:43.836Z,35.40
2019-04-20T20:39:15.976Z,35.40
2019-04-20T20:41:49.234Z,35.40
2019-04-20T20:44:14.357Z,35.30
2019-04-20T20:46:39.825Z,35.40
2019-04-20T20:49:16.558Z,35.60
2019-04-20T20:51:49.806Z,35.70
2019-04-20T20:54:04.803Z,35.60
2019-04-20T20:56:28.985Z,35.80
2019-04-20T20:59:01.741Z,35.90
2019-04-20T21:01:25.377Z,36.00
2019-04-20T21:03:49.923Z,36.00
2019-04-20T21:06:18.690Z,36.00
2019-04-20T21:08:48.712Z,36.20
2019-04-20T21:11:19.587Z,36.20
2019-04-20T21:13:45.174Z,36.30
2019-04-20T21:16:16.638Z,36.20
2019-04-20T21:18:50.392Z,36.50
2019-04-20T21:21:17.087Z,36.50
2019-04-20T21:23:47.221Z,36.60
2019-04-20T21:26:06.934Z,36.70
2019-04-20T21:28:36.335Z,36.70
2019-04-20T21:31:08.422Z,36.70
2019-04-20T21:33:34.885Z,36.70
2019-04-20T21:36:00.913Z,36.70
2019-04-20T21:38:32.089Z,36.80
2019-04-20T21:41:04.446Z,36.90
2019-04-20T21:43:29.775Z,36.80
2019-04-20T21:45:58.126Z,36.80
2019-04-20T21:48:40.523Z,36.90
2019-04-20T21:51:05.828Z,37.00
2019-04-20T21:53:22.899Z,37.10
2019-04-20T21:55:45.906Z,37.10
2019-04-20T21:58:13.708Z,37.40
2019-04-20T22:01:04.390Z,37.40
2019-04-20T22:03:22.705Z,37.50
2019-04-20T22:05:52.874Z,37.50
2019-04-20T22:08:19.729Z,38.20
2019-04-20T22:10:47.072Z,37.60
2019-04-20T22:13:14.106Z,37.80
2019-04-20T22:15:51.726Z,37.70
2019-04-20T22:18:12.335Z,37.90
2019-04-20T22:20:52.202Z,38.00
2019-04-20T22:23:17.202Z,38.10
2019-04-20T22:25:52.850Z,38.00
2019-04-20T22:28:04.048Z,38.00
2019-04-20T22:30:32.179Z,38.20
2019-04-20T22:33:01.058Z,38.30
2019-04-20T22:35:28.247Z,39.10
2019-04-20T22:38:10.129Z,38.60
2019-04-20T22:40:35.226Z,38.70
2019-04-20T22:43:02.149Z,38.80
2019-04-20T22:45:29.580Z,39.00
2019-04-20T22:48:03.472Z,39.20
2019-04-20T22:50:40.029Z,39.20
2019-04-20T22:53:05.028Z,39.30
2019-04-20T22:56:02.816Z,39.50
2019-04-20T22:58:23.467Z,39.40
2019-04-20T23:00:43.168Z,39.40
2019-04-20T23:03:05.005Z,39.50
2019-04-20T23:05:31.261Z,39.70
2019-04-20T23:07:58.890Z,40.00
2019-04-20T23:10:33.766Z,40.10
2019-04-20T23:12:57.485Z,40.30
2019-04-20T23:15:22.501Z,40.30
2019-04-20T23:17:51.816Z,40.20
2019-04-20T23:20:24.635Z,40.30
2019-04-20T23:22:47.928Z,40.40
2019-04-20T23:25:13.416Z,40.60
2019-04-20T23:27:41.802Z,40.60
2019-04-20T23:30:12.615Z,40.60
2019-04-20T23:32:37.783Z,40.60
2019-04-20T23:35:09.752Z,41.00
2019-04-20T23:37:35.599Z,41.20
2019-04-20T23:40:02.853Z,40.70
2019-04-20T23:42:42.451Z,40.50
2019-04-20T23:45:17.010Z,40.60
2019-04-20T23:47:56.024Z,40.60
2019-04-20T23:50:40.955Z,40.70
2019-04-20T23:53:06.683Z,40.70
2019-04-20T23:55:18.407Z,40.30
2019-04-20T23:57:46.005Z,40.30
